sensor_id;sensor_type;location;lat;lon;timestamp;temperature;humidity
37285;DHT22;23172;53.550;9.964;2023-05-07T00:01:37;12.00;94.30
37285;DHT22;23172;53.550;9.964;2023-05-07T00:06:39;12.00;94.10
37285;DHT22;23172;53.550;9.964;2023-05-07T00:11:42;12.10;94.00
37285;DHT22;23172;53.550;9.964;2023-05-07T00:21:52;12.00;94.10
37285;DHT22;23172;53.550;9.964;2023-05-07T00:26:57;11.90;94.20
37285;DHT22;23172;53.550;9.964;2023-05-07T00:31:59;11.80;94.10
37285;DHT22;23172;53.550;9.964;2023-05-07T08:46:39;11.70;94.30
37285;DHT22;23172;53.550;9.964;2023-05-07T08:51:42;13.50;90.00
37285;DHT22;23172;53.550;9.964;2023-05-07T08:56:46;13.40;89.20
37285;DHT22;23172;53.550;9.964;2023-05-07T09:01:48;13.30;89.70
37285;DHT22;23172;53.550;9.964;2023-05-07T09:06:50;13.40;89.90
37285;DHT22;23172;53.550;9.964;2023-05-07T09:11:58;13.50;89.60
37285;DHT22;23172;53.550;9.964;2023-05-07T09:17:00;13.70;88.90
37285;DHT22;23172;53.550;9.964;2023-05-07T09:22:03;13.90;88.20
37285;DHT22;23172;53.550;9.964;2023-05-07T09:47:25;14.00;87.80
37285;DHT22;23172;53.550;9.964;2023-05-07T09:52:29;14.90;83.60
37285;DHT22;23172;53.550;9.964;2023-05-07T09:57:36;14.90;81.70
37285;DHT22;23172;53.550;9.964;2023-05-07T10:02:39;14.90;82.10
37285;DHT22;23172;53.550;9.964;2023-05-07T10:07:47;15.10;81.30
37285;DHT22;23172;53.550;9.964;2023-05-07T10:12:50;15.10;80.30
37285;DHT22;23172;53.550;9.964;2023-05-07T10:17:53;15.20;80.40
37285;DHT22;23172;53.550;9.964;2023-05-07T10:22:56;15.20;79.00
37285;DHT22;23172;53.550;9.964;2023-05-07T10:28:02;15.20;78.80
37285;DHT22;23172;53.550;9.964;2023-05-07T10:33:09;15.30;78.60
37285;DHT22;23172;53.550;9.964;2023-05-07T10:38:12;15.60;77.90
37285;DHT22;23172;53.550;9.964;2023-05-07T10:43:15;15.70;76.90
37285;DHT22;23172;53.550;9.964;2023-05-07T10:48:17;15.70;76.40
37285;DHT22;23172;53.550;9.964;2023-05-07T10:53:23;15.80;75.90
37285;DHT22;23172;53.550;9.964;2023-05-07T10:58:30;15.90;74.50
37285;DHT22;23172;53.550;9.964;2023-05-07T11:03:33;16.00;74.70
37285;DHT22;23172;53.550;9.964;2023-05-07T11:08:54;16.20;73.80
37285;DHT22;23172;53.550;9.964;2023-05-07T11:13:57;16.60;72.40
37285;DHT22;23172;53.550;9.964;2023-05-07T11:18:59;17.00;70.70
37285;DHT22;23172;53.550;9.964;2023-05-07T11:24:02;17.10;69.50
37285;DHT22;23172;53.550;9.964;2023-05-07T11:29:11;17.80;68.70
37285;DHT22;23172;53.550;9.964;2023-05-07T11:34:14;18.40;66.00
37285;DHT22;23172;53.550;9.964;2023-05-07T11:39:27;18.90;65.30
37285;DHT22;23172;53.550;9.964;2023-05-07T11:44:44;19.20;61.10
37285;DHT22;23172;53.550;9.964;2023-05-07T11:49:47;19.20;61.30
37285;DHT22;23172;53.550;9.964;2023-05-07T11:54:50;19.20;60.20
37285;DHT22;23172;53.550;9.964;2023-05-07T11:59:54;19.40;59.60
37285;DHT22;23172;53.550;9.964;2023-05-07T12:04:56;19.90;58.00
37285;DHT22;23172;53.550;9.964;2023-05-07T12:09:58;19.70;57.50
37285;DHT22;23172;53.550;9.964;2023-05-07T12:15:01;19.50;57.50
37285;DHT22;23172;53.550;9.964;2023-05-07T12:20:04;19.50;57.40
37285;DHT22;23172;53.550;9.964;2023-05-07T12:25:07;19.50;56.80
37285;DHT22;23172;53.550;9.964;2023-05-07T12:30:12;19.60;56.90
37285;DHT22;23172;53.550;9.964;2023-05-07T12:35:14;20.20;56.10
37285;DHT22;23172;53.550;9.964;2023-05-07T12:40:16;20.60;55.00
37285;DHT22;23172;53.550;9.964;2023-05-07T12:45:19;20.60;54.30
37285;DHT22;23172;53.550;9.964;2023-05-07T12:50:22;21.10;53.90
37285;DHT22;23172;53.550;9.964;2023-05-07T12:55:24;21.50;52.40
37285;DHT22;23172;53.550;9.964;2023-05-07T13:00:35;22.00;51.20
37285;DHT22;23172;53.550;9.964;2023-05-07T13:05:37;21.90;50.70
37285;DHT22;23172;53.550;9.964;2023-05-07T13:10:39;21.60;50.90
37285;DHT22;23172;53.550;9.964;2023-05-07T13:15:42;21.60;51.70
37285;DHT22;23172;53.550;9.964;2023-05-07T13:20:44;21.50;50.70
37285;DHT22;23172;53.550;9.964;2023-05-07T13:25:45;20.80;51.20
37285;DHT22;23172;53.550;9.964;2023-05-07T13:30:49;20.70;51.80
37285;DHT22;23172;53.550;9.964;2023-05-07T13:35:52;21.00;51.70
37285;DHT22;23172;53.550;9.964;2023-05-07T13:40:54;21.20;51.40
37285;DHT22;23172;53.550;9.964;2023-05-07T13:45:57;21.20;51.20
37285;DHT22;23172;53.550;9.964;2023-05-07T13:50:59;21.10;51.20
37285;DHT22;23172;53.550;9.964;2023-05-07T13:56:01;21.30;51.10
37285;DHT22;23172;53.550;9.964;2023-05-07T14:01:06;21.00;51.30
37285;DHT22;23172;53.550;9.964;2023-05-07T14:06:08;20.70;51.50
37285;DHT22;23172;53.550;9.964;2023-05-07T14:11:10;20.50;51.70
37285;DHT22;23172;53.550;9.964;2023-05-07T14:16:13;20.50;51.80
37285;DHT22;23172;53.550;9.964;2023-05-07T14:21:15;20.70;51.60
37285;DHT22;23172;53.550;9.964;2023-05-07T14:26:17;20.90;51.30
37285;DHT22;23172;53.550;9.964;2023-05-07T14:31:21;21.10;51.10
37285;DHT22;23172;53.550;9.964;2023-05-07T14:36:22;21.40;51.30
37285;DHT22;23172;53.550;9.964;2023-05-07T14:41:26;21.50;50.50
37285;DHT22;23172;53.550;9.964;2023-05-07T14:46:29;21.70;50.30
37285;DHT22;23172;53.550;9.964;2023-05-07T14:51:32;21.50;50.30
37285;DHT22;23172;53.550;9.964;2023-05-07T14:56:35;21.80;49.80
37285;DHT22;23172;53.550;9.964;2023-05-07T15:01:38;21.80;49.60
37285;DHT22;23172;53.550;9.964;2023-05-07T15:06:43;21.70;49.30
37285;DHT22;23172;53.550;9.964;2023-05-07T15:11:44;21.70;49.00
37285;DHT22;23172;53.550;9.964;2023-05-07T15:16:48;21.40;49.40
37285;DHT22;23172;53.550;9.964;2023-05-07T15:21:50;21.10;49.60
37285;DHT22;23172;53.550;9.964;2023-05-07T15:26:52;20.80;50.00
37285;DHT22;23172;53.550;9.964;2023-05-07T15:31:55;20.30;50.60
37285;DHT22;23172;53.550;9.964;2023-05-07T15:36:57;20.10;51.10
37285;DHT22;23172;53.550;9.964;2023-05-07T15:41:59;19.80;51.50
37285;DHT22;23172;53.550;9.964;2023-05-07T15:47:03;19.60;51.80
37285;DHT22;23172;53.550;9.964;2023-05-07T15:52:05;19.50;51.90
37285;DHT22;23172;53.550;9.964;2023-05-07T15:57:07;19.40;52.10
37285;DHT22;23172;53.550;9.964;2023-05-07T16:02:10;19.20;52.40
37285;DHT22;23172;53.550;9.964;2023-05-07T16:07:13;19.10;52.70
37285;DHT22;23172;53.550;9.964;2023-05-07T16:12:15;19.00;53.00
37285;DHT22;23172;53.550;9.964;2023-05-07T16:17:18;19.00;53.10
37285;DHT22;23172;53.550;9.964;2023-05-07T16:22:20;19.00;53.10
37285;DHT22;23172;53.550;9.964;2023-05-07T16:27:24;19.00;53.10
37285;DHT22;23172;53.550;9.964;2023-05-07T16:32:27;18.90;53.30
37285;DHT22;23172;53.550;9.964;2023-05-07T16:37:30;18.80;53.50
37285;DHT22;23172;53.550;9.964;2023-05-07T16:42:32;18.70;53.70
37285;DHT22;23172;53.550;9.964;2023-05-07T16:47:35;18.80;53.80
37285;DHT22;23172;53.550;9.964;2023-05-07T16:52:37;18.60;54.00
37285;DHT22;23172;53.550;9.964;2023-05-07T16:57:39;18.60;54.00
37285;DHT22;23172;53.550;9.964;2023-05-07T17:02:42;18.50;54.10
37285;DHT22;23172;53.550;9.964;2023-05-07T17:07:45;18.40;54.10
37285;DHT22;23172;53.550;9.964;2023-05-07T17:12:47;18.50;54.10
37285;DHT22;23172;53.550;9.964;2023-05-07T17:17:50;18.50;54.10
37285;DHT22;23172;53.550;9.964;2023-05-07T17:22:52;18.60;54.70
37285;DHT22;23172;53.550;9.964;2023-05-07T17:27:53;18.70;53.80
37285;DHT22;23172;53.550;9.964;2023-05-07T17:32:57;18.80;53.80
37285;DHT22;23172;53.550;9.964;2023-05-07T17:37:59;18.60;53.80
37285;DHT22;23172;53.550;9.964;2023-05-07T17:43:02;18.60;53.70
37285;DHT22;23172;53.550;9.964;2023-05-07T17:48:06;18.40;53.70
37285;DHT22;23172;53.550;9.964;2023-05-07T17:53:07;18.40;53.70
37285;DHT22;23172;53.550;9.964;2023-05-07T17:58:09;18.30;53.70
37285;DHT22;23172;53.550;9.964;2023-05-07T18:03:13;18.20;53.90
37285;DHT22;23172;53.550;9.964;2023-05-07T18:08:15;18.10;54.10
37285;DHT22;23172;53.550;9.964;2023-05-07T18:13:16;18.00;54.10
37285;DHT22;23172;53.550;9.964;2023-05-07T18:18:20;17.90;54.30
37285;DHT22;23172;53.550;9.964;2023-05-07T18:23:22;17.80;54.50
37285;DHT22;23172;53.550;9.964;2023-05-07T18:28:23;17.60;54.90
37285;DHT22;23172;53.550;9.964;2023-05-07T18:33:27;17.40;55.40
37285;DHT22;23172;53.550;9.964;2023-05-07T18:38:29;17.20;55.70
37285;DHT22;23172;53.550;9.964;2023-05-07T18:43:31;17.10;56.00
37285;DHT22;23172;53.550;9.964;2023-05-07T18:48:34;17.00;56.20
37285;DHT22;23172;53.550;9.964;2023-05-07T18:53:36;16.80;57.00
37285;DHT22;23172;53.550;9.964;2023-05-07T18:58:38;16.70;56.40
37285;DHT22;23172;53.550;9.964;2023-05-07T19:03:42;16.70;56.80
37285;DHT22;23172;53.550;9.964;2023-05-07T19:08:43;16.50;57.10
37285;DHT22;23172;53.550;9.964;2023-05-07T19:13:45;16.50;57.30
37285;DHT22;23172;53.550;9.964;2023-05-07T19:18:48;16.40;57.50
37285;DHT22;23172;53.550;9.964;2023-05-07T19:23:51;16.30;57.80
37285;DHT22;23172;53.550;9.964;2023-05-07T19:28:53;16.20;58.10
37285;DHT22;23172;53.550;9.964;2023-05-07T19:33:57;16.10;58.20
37285;DHT22;23172;53.550;9.964;2023-05-07T19:38:59;16.10;58.40
37285;DHT22;23172;53.550;9.964;2023-05-07T19:44:01;16.00;58.70
37285;DHT22;23172;53.550;9.964;2023-05-07T19:49:04;16.00;58.80
37285;DHT22;23172;53.550;9.964;2023-05-07T19:54:06;15.90;59.00
37285;DHT22;23172;53.550;9.964;2023-05-07T19:59:08;15.90;59.10
37285;DHT22;23172;53.550;9.964;2023-05-07T20:04:11;15.80;59.40
37285;DHT22;23172;53.550;9.964;2023-05-07T20:09:13;15.70;59.50
37285;DHT22;23172;53.550;9.964;2023-05-07T20:14:15;15.70;59.70
37285;DHT22;23172;53.550;9.964;2023-05-07T20:19:18;15.70;60.00
37285;DHT22;23172;53.550;9.964;2023-05-07T20:24:21;15.60;60.30
37285;DHT22;23172;53.550;9.964;2023-05-07T20:29:24;15.50;60.80
37285;DHT22;23172;53.550;9.964;2023-05-07T20:34:27;15.50;61.10
37285;DHT22;23172;53.550;9.964;2023-05-07T20:39:29;15.40;61.30
37285;DHT22;23172;53.550;9.964;2023-05-07T20:44:31;15.40;61.40
37285;DHT22;23172;53.550;9.964;2023-05-07T20:49:34;15.40;61.50
37285;DHT22;23172;53.550;9.964;2023-05-07T20:54:36;15.40;61.70
37285;DHT22;23172;53.550;9.964;2023-05-07T20:59:42;15.30;61.90
37285;DHT22;23172;53.550;9.964;2023-05-07T21:04:45;15.30;62.20
37285;DHT22;23172;53.550;9.964;2023-05-07T21:09:47;15.30;62.50
37285;DHT22;23172;53.550;9.964;2023-05-07T21:14:49;15.20;62.80
37285;DHT22;23172;53.550;9.964;2023-05-07T21:19:52;15.20;63.10
37285;DHT22;23172;53.550;9.964;2023-05-07T21:24:54;15.10;64.00
37285;DHT22;23172;53.550;9.964;2023-05-07T21:29:56;15.10;63.60
37285;DHT22;23172;53.550;9.964;2023-05-07T21:35:06;15.10;64.00
37285;DHT22;23172;53.550;9.964;2023-05-07T21:40:08;15.00;64.10
37285;DHT22;23172;53.550;9.964;2023-05-07T21:45:11;15.00;64.30
37285;DHT22;23172;53.550;9.964;2023-05-07T21:50:15;15.00;64.50
37285;DHT22;23172;53.550;9.964;2023-05-07T21:55:17;14.90;64.80
37285;DHT22;23172;53.550;9.964;2023-05-07T22:00:19;14.90;65.20
37285;DHT22;23172;53.550;9.964;2023-05-07T22:05:23;14.80;65.50
37285;DHT22;23172;53.550;9.964;2023-05-07T22:10:25;14.70;65.90
37285;DHT22;23172;53.550;9.964;2023-05-07T22:15:27;14.70;66.30
37285;DHT22;23172;53.550;9.964;2023-05-07T22:20:30;14.60;66.60
37285;DHT22;23172;53.550;9.964;2023-05-07T22:25:33;14.60;66.80
37285;DHT22;23172;53.550;9.964;2023-05-07T22:30:35;14.50;67.30
37285;DHT22;23172;53.550;9.964;2023-05-07T22:35:39;14.50;67.60
37285;DHT22;23172;53.550;9.964;2023-05-07T22:40:41;14.40;67.70
37285;DHT22;23172;53.550;9.964;2023-05-07T22:45:42;14.30;68.10
37285;DHT22;23172;53.550;9.964;2023-05-07T22:50:46;14.30;68.80
37285;DHT22;23172;53.550;9.964;2023-05-07T22:55:48;14.10;69.10
37285;DHT22;23172;53.550;9.964;2023-05-07T23:00:50;14.10;69.70
37285;DHT22;23172;53.550;9.964;2023-05-07T23:05:54;14.00;70.50
37285;DHT22;23172;53.550;9.964;2023-05-07T23:10:56;13.90;71.00
37285;DHT22;23172;53.550;9.964;2023-05-07T23:15:57;13.90;71.30
37285;DHT22;23172;53.550;9.964;2023-05-07T23:21:01;13.90;71.60
37285;DHT22;23172;53.550;9.964;2023-05-07T23:26:03;13.80;71.90
37285;DHT22;23172;53.550;9.964;2023-05-07T23:31:06;13.70;72.30
37285;DHT22;23172;53.550;9.964;2023-05-07T23:36:09;13.60;72.70
37285;DHT22;23172;53.550;9.964;2023-05-07T23:41:11;13.60;73.20
37285;DHT22;23172;53.550;9.964;2023-05-07T23:46:13;13.50;73.50
37285;DHT22;23172;53.550;9.964;2023-05-07T23:51:17;13.40;73.80
37285;DHT22;23172;53.550;9.964;2023-05-07T23:56:18;13.40;74.00
